Time;durP1;ratioP1;P1;durP2;ratioP2;P2;SDS_P1;SDS_P2;PMS_P1;PMS_P2;Temp;Humidity;BMP_temperature;BMP_pressure;BME280_temperature;BME280_humidity;BME280_pressure;Samples;Min_cycle;Max_cycle;Signal;HPM_P1;HPM_P2
2024/03/22 00:01:31;;;;;;;17.83;7.93;;;;;;;;;;6117745;23;20015;-82
2024/03/22 00:04:02;;;;;;;16.17;7.57;;;;;;;;;;6093271;23;20514;-84
2024/03/22 00:06:30;;;;;;;15.77;7.78;;;;;;;;;;6066303;23;20106;-84
2024/03/22 00:08:58;;;;;;;15.35;7.63;;;;;;;;;;6068685;23;20026;-83
2024/03/22 00:11:24;;;;;;;14.18;7.40;;;;;;;;;;6086011;23;20009;-84
2024/03/22 00:13:55;;;;;;;14.98;7.45;;;;;;;;;;6108616;23;20002;-83
2024/03/22 00:17:03;;;;;;;14.55;6.70;;;;;;;;;;6115333;23;20145;-84
2024/03/22 00:19:34;;;;;;;15.40;7.28;;;;;;;;;;6111753;23;20092;-83
2024/03/22 00:22:03;;;;;;;13.73;6.93;;;;;;;;;;6063629;23;20010;-84
2024/03/22 00:24:48;;;;;;;17.08;7.28;;;;;;;;;;6067638;23;20096;-83
2024/03/22 00:27:18;;;;;;;16.48;7.75;;;;;;;;;;6089507;23;20033;-83
2024/03/22 00:29:46;;;;;;;18.17;8.27;;;;;;;;;;6088243;23;20006;-83
2024/03/22 00:32:12;;;;;;;15.15;7.75;;;;;;;;;;6112243;23;20010;-83
2024/03/22 00:34:48;;;;;;;20.48;8.30;;;;;;;;;;6043009;23;20014;-82
2024/03/22 00:37:14;;;;;;;;;;;;;;;;;;6114105;23;20006;-85
2024/03/22 00:39:43;;;;;;;18.65;7.60;;;;;;;;;;6065161;23;19912;-83
2024/03/22 00:42:13;;;;;;;14.85;7.60;;;;;;;;;;6063504;23;20014;-85
2024/03/22 00:44:40;;;;;;;13.82;7.22;;;;;;;;;;6088663;23;20523;-83
2024/03/22 00:47:09;;;;;;;14.88;7.60;;;;;;;;;;6110705;23;20013;-83
2024/03/22 00:49:37;;;;;;;18.08;8.50;;;;;;;;;;6086856;23;20033;-84
2024/03/22 00:52:24;;;;;;;;;;;;;;;;;;6091006;23;20013;-83
2024/03/22 00:54:50;;;;;;;16.25;6.95;;;;;;;;;;6061262;23;19905;-83
2024/03/22 00:57:22;;;;;;;18.75;8.63;;;;;;;;;;6086519;23;20006;-82
2024/03/22 00:59:50;;;;;;;18.15;8.50;;;;;;;;;;6109430;23;20089;-84
2024/03/22 01:02:22;;;;;;;17.30;8.05;;;;;;;;;;6080258;23;20057;-83
2024/03/22 01:04:53;;;;;;;17.58;7.75;;;;;;;;;;6086684;23;20085;-83
2024/03/22 01:07:39;;;;;;;20.27;9.68;;;;;;;;;;6043531;23;20002;-83
2024/03/22 01:10:07;;;;;;;20.47;9.03;;;;;;;;;;6109416;23;20037;-84
2024/03/22 01:12:39;;;;;;;22.00;10.63;;;;;;;;;;6086801;23;20010;-83
2024/03/22 01:15:10;;;;;;;23.15;10.50;;;;;;;;;;6080587;23;20006;-84
2024/03/22 01:17:50;;;;;;;25.55;11.13;;;;;;;;;;6082743;23;20058;-84
2024/03/22 01:20:16;;;;;;;24.48;10.27;;;;;;;;;;6080698;23;20002;-84
2024/03/22 01:22:42;;;;;;;32.88;12.20;;;;;;;;;;6056442;23;20010;-82
2024/03/22 01:25:10;;;;;;;28.25;12.02;;;;;;;;;;6059663;23;20475;-83
2024/03/22 01:27:38;;;;;;;22.42;11.57;;;;;;;;;;6060755;23;20007;-83
2024/03/22 01:30:13;;;;;;;28.23;12.30;;;;;;;;;;6037962;23;20041;-85
2024/03/22 01:32:43;;;;;;;27.85;13.90;;;;;;;;;;6040482;23;20344;-84
2024/03/22 01:35:13;;;;;;;30.05;12.40;;;;;;;;;;6089514;23;20010;-85
2024/03/22 01:37:41;;;;;;;23.52;10.63;;;;;;;;;;6113015;23;20011;-82
2024/03/22 01:40:15;;;;;;;27.65;11.60;;;;;;;;;;6060181;23;20017;-83
2024/03/22 01:42:52;;;;;;;28.45;12.40;;;;;;;;;;6084898;23;20253;-83
2024/03/22 01:45:20;;;;;;;28.63;11.85;;;;;;;;;;6105543;23;20002;-83
2024/03/22 01:47:50;;;;;;;28.27;12.10;;;;;;;;;;6108280;23;20081;-83
2024/03/22 01:50:40;;;;;;;29.70;11.45;;;;;;;;;;6083111;23;20038;-84
2024/03/22 01:53:17;;;;;;;28.42;12.60;;;;;;;;;;6057507;23;20011;-82
2024/03/22 01:55:54;;;;;;;29.13;12.05;;;;;;;;;;6083997;23;20080;-83
2024/03/22 01:58:21;;;;;;;28.73;12.32;;;;;;;;;;6057202;23;20010;-83
2024/03/22 02:00:53;;;;;;;25.73;13.25;;;;;;;;;;6128766;23;20046;-83
2024/03/22 02:03:31;;;;;;;26.92;12.60;;;;;;;;;;6084865;23;20010;-85
2024/03/22 02:06:04;;;;;;;21.25;8.55;;;;;;;;;;6059503;23;20022;-83
2024/03/22 02:08:44;;;;;;;31.20;13.45;;;;;;;;;;6086894;23;20026;-83
2024/03/22 02:11:30;;;;;;;27.83;12.82;;;;;;;;;;6110879;23;20006;-82
2024/03/22 02:14:02;;;;;;;28.08;12.50;;;;;;;;;;6038965;23;20014;-83
2024/03/22 02:16:31;;;;;;;26.85;12.10;;;;;;;;;;6085081;23;20018;-82
2024/03/22 02:19:12;;;;;;;25.17;11.40;;;;;;;;;;6109109;23;20026;-83
2024/03/22 02:21:44;;;;;;;25.70;11.50;;;;;;;;;;6086548;23;20013;-83
2024/03/22 02:24:13;;;;;;;25.02;10.52;;;;;;;;;;6110148;23;20026;-83
2024/03/22 02:27:00;;;;;;;25.27;10.98;;;;;;;;;;6084717;23;20456;-82
2024/03/22 02:29:32;;;;;;;22.00;10.55;;;;;;;;;;6084598;23;20007;-83
2024/03/22 02:32:07;;;;;;;25.80;12.65;;;;;;;;;;6086112;23;20013;-83
2024/03/22 02:34:40;;;;;;;31.02;13.55;;;;;;;;;;6088323;23;20002;-83
2024/03/22 02:37:09;;;;;;;28.42;12.10;;;;;;;;;;6085374;23;20010;-82
2024/03/22 02:39:42;;;;;;;30.48;12.43;;;;;;;;;;6086039;23;20068;-81
2024/03/22 02:42:12;;;;;;;25.05;11.73;;;;;;;;;;6085519;23;20014;-83
2024/03/22 02:45:01;;;;;;;24.50;12.10;;;;;;;;;;6084092;23;20014;-83
2024/03/22 02:47:31;;;;;;;25.15;11.77;;;;;;;;;;6060223;23;20015;-82
2024/03/22 02:50:01;;;;;;;22.00;11.60;;;;;;;;;;6063132;23;20011;-83
2024/03/22 02:52:53;;;;;;;21.30;10.27;;;;;;;;;;6065207;23;20093;-83
2024/03/22 02:55:32;;;;;;;24.90;11.00;;;;;;;;;;6064085;23;20042;-81
2024/03/22 02:57:57;;;;;;;23.40;9.73;;;;;;;;;;6059321;23;20033;-82
2024/03/22 03:00:32;;;;;;;28.08;10.70;;;;;;;;;;6110075;23;20007;-84
2024/03/22 03:03:03;;;;;;;23.48;10.70;;;;;;;;;;6062366;23;20025;-83
2024/03/22 03:05:38;;;;;;;21.52;10.65;;;;;;;;;;6086372;23;20063;-82
2024/03/22 03:08:11;;;;;;;22.38;10.50;;;;;;;;;;6088001;23;20093;-83
2024/03/22 03:10:42;;;;;;;23.85;10.43;;;;;;;;;;6086104;23;20011;-83
2024/03/22 03:13:10;;;;;;;21.48;9.52;;;;;;;;;;6087506;23;20028;-82
2024/03/22 03:15:43;;;;;;;20.58;10.18;;;;;;;;;;6109936;23;20015;-83
2024/03/22 03:18:10;;;;;;;24.00;10.52;;;;;;;;;;6087931;23;20021;-82
2024/03/22 03:20:42;;;;;;;24.42;9.88;;;;;;;;;;6088158;23;20015;-83
2024/03/22 03:23:11;;;;;;;22.60;9.63;;;;;;;;;;6086853;23;20018;-82
2024/03/22 03:25:41;;;;;;;22.50;9.48;;;;;;;;;;6038073;23;20018;-83
2024/03/22 03:28:13;;;;;;;16.42;8.35;;;;;;;;;;6039986;23;20010;-83
2024/03/22 03:30:41;;;;;;;23.60;8.90;;;;;;;;;;6084467;23;20040;-82
2024/03/22 03:33:11;;;;;;;20.33;8.80;;;;;;;;;;6084517;23;20006;-84
2024/03/22 03:35:36;;;;;;;21.20;9.70;;;;;;;;;;6059371;23;20037;-83
2024/03/22 03:38:15;;;;;;;18.20;8.75;;;;;;;;;;6084415;23;20086;-83
2024/03/22 03:40:41;;;;;;;18.20;8.43;;;;;;;;;;6099399;23;20015;-83
2024/03/22 03:43:10;;;;;;;21.73;9.18;;;;;;;;;;6058062;23;20415;-83
2024/03/22 03:45:46;;;;;;;19.05;8.02;;;;;;;;;;6085138;23;20014;-82
2024/03/22 03:48:31;;;;;;;15.32;7.72;;;;;;;;;;6109206;23;20007;-83
2024/03/22 03:51:03;;;;;;;18.27;7.80;;;;;;;;;;6088963;23;20011;-82
2024/03/22 03:53:31;;;;;;;19.98;8.38;;;;;;;;;;6084754;23;20033;-83
2024/03/22 03:56:01;;;;;;;20.33;8.65;;;;;;;;;;6060489;23;20042;-82
2024/03/22 03:58:33;;;;;;;19.00;8.50;;;;;;;;;;6080968;23;20014;-83
2024/03/22 04:01:12;;;;;;;17.48;8.07;;;;;;;;;;6089118;23;20011;-83
2024/03/22 04:04:15;;;;;;;19.35;8.05;;;;;;;;;;6110141;23;20030;-84
2024/03/22 04:06:41;;;;;;;15.88;7.60;;;;;;;;;;6070926;23;20018;-82
2024/03/22 04:09:20;;;;;;;17.70;8.05;;;;;;;;;;6088484;23;20086;-83
2024/03/22 04:11:47;;;;;;;16.80;7.18;;;;;;;;;;6117142;23;20026;-82
2024/03/22 04:14:23;;;;;;;14.93;7.57;;;;;;;;;;6087872;23;20013;-83
2024/03/22 04:16:51;;;;;;;15.27;6.93;;;;;;;;;;6045972;23;20014;-83
2024/03/22 04:19:21;;;;;;;13.27;6.25;;;;;;;;;;6038353;23;20015;-82
2024/03/22 04:21:50;;;;;;;19.60;6.50;;;;;;;;;;6059509;23;20002;-83
2024/03/22 04:24:47;;;;;;;12.88;6.85;;;;;;;;;;6060222;23;20010;-83
2024/03/22 04:27:24;;;;;;;15.10;6.47;;;;;;;;;;6072306;23;20021;-82
2024/03/22 04:29:50;;;;;;;14.80;6.97;;;;;;;;;;6035174;23;20135;-83
2024/03/22 04:32:24;;;;;;;12.50;5.80;;;;;;;;;;6033613;23;20014;-81
2024/03/22 04:34:56;;;;;;;14.63;6.30;;;;;;;;;;6062566;23;20025;-81
2024/03/22 04:37:42;;;;;;;14.93;5.60;;;;;;;;;;6016017;23;20122;-82
2024/03/22 04:40:09;;;;;;;13.55;5.82;;;;;;;;;;6067301;23;20089;-82
2024/03/22 04:42:40;;;;;;;18.17;6.03;;;;;;;;;;6045632;23;20066;-83
2024/03/22 04:45:11;;;;;;;13.57;6.10;;;;;;;;;;6044410;23;20069;-82
2024/03/22 04:47:51;;;;;;;12.83;5.47;;;;;;;;;;6065110;23;20007;-82
2024/03/22 04:50:31;;;;;;;11.73;5.40;;;;;;;;;;6042873;23;20272;-83
2024/03/22 04:53:32;;;;;;;9.93;5.18;;;;;;;;;;6085313;23;20007;-83
2024/03/22 04:56:02;;;;;;;13.63;6.20;;;;;;;;;;6065053;23;20030;-82
2024/03/22 04:58:28;;;;;;;11.90;4.85;;;;;;;;;;6035154;23;20025;-82
2024/03/22 05:01:23;;;;;;;12.25;5.22;;;;;;;;;;6084667;23;20531;-82
2024/03/22 05:03:51;;;;;;;9.98;5.40;;;;;;;;;;6061480;23;20010;-82
2024/03/22 05:06:25;;;;;;;10.80;5.13;;;;;;;;;;6038252;23;20011;-83
2024/03/22 05:09:11;;;;;;;11.73;5.15;;;;;;;;;;6082009;23;20021;-84
2024/03/22 05:12:02;;;;;;;12.33;4.80;;;;;;;;;;6083795;23;20010;-84
2024/03/22 05:14:54;;;;;;;10.25;4.80;;;;;;;;;;6110877;23;20053;-82
2024/03/22 05:18:12;;;;;;;11.35;4.95;;;;;;;;;;6062886;23;20089;-83
2024/03/22 05:20:52;;;;;;;11.68;5.22;;;;;;;;;;6083655;23;20033;-83
2024/03/22 05:23:54;;;;;;;11.77;5.93;;;;;;;;;;6071608;23;20010;-82
2024/03/22 05:26:40;;;;;;;9.93;5.10;;;;;;;;;;6041495;23;20029;-84
2024/03/22 05:29:12;;;;;;;9.63;4.95;;;;;;;;;;6083190;23;20010;-82
2024/03/22 05:32:12;;;;;;;10.82;4.80;;;;;;;;;;6060950;23;20038;-84
2024/03/22 05:35:14;;;;;;;9.52;4.43;;;;;;;;;;6039729;23;20065;-83
2024/03/22 05:38:26;;;;;;;12.25;5.20;;;;;;;;;;6050011;23;20078;-84
2024/03/22 05:41:31;;;;;;;10.02;6.00;;;;;;;;;;6023469;23;20022;-82
2024/03/22 05:44:01;;;;;;;12.73;5.07;;;;;;;;;;6002176;23;20008;-82
2024/03/22 05:46:35;;;;;;;13.55;5.15;;;;;;;;;;5975470;23;20015;-82
2024/03/22 05:49:02;;;;;;;10.00;4.70;;;;;;;;;;5978664;23;20067;-83
2024/03/22 05:51:30;;;;;;;11.10;4.70;;;;;;;;;;6049253;23;20015;-82
2024/03/22 05:54:02;;;;;;;11.85;5.45;;;;;;;;;;5979756;23;20245;-83
2024/03/22 05:56:43;;;;;;;9.75;4.80;;;;;;;;;;6003633;23;20015;-83
2024/03/22 05:59:10;;;;;;;7.95;4.40;;;;;;;;;;6041744;23;20015;-82
2024/03/22 06:01:41;;;;;;;11.00;4.57;;;;;;;;;;6018357;23;20378;-82
2024/03/22 06:04:10;;;;;;;9.57;4.30;;;;;;;;;;5995900;23;20074;-82
2024/03/22 06:06:41;;;;;;;13.77;4.32;;;;;;;;;;5971243;23;20015;-82
2024/03/22 06:09:19;;;;;;;13.57;5.20;;;;;;;;;;5997030;23;20465;-82
2024/03/22 06:11:48;;;;;;;13.00;5.00;;;;;;;;;;5998629;23;20019;-81
2024/03/22 06:14:19;;;;;;;10.98;4.38;;;;;;;;;;6018149;23;20014;-81
2024/03/22 06:16:48;;;;;;;7.57;4.25;;;;;;;;;;6042040;23;20021;-82
2024/03/22 06:19:17;;;;;;;8.63;4.07;;;;;;;;;;6057857;23;20011;-82
2024/03/22 06:21:58;;;;;;;9.73;4.78;;;;;;;;;;6103928;23;20034;-82
2024/03/22 06:24:31;;;;;;;9.30;4.40;;;;;;;;;;6104293;23;20046;-82
2024/03/22 06:27:01;;;;;;;11.15;3.85;;;;;;;;;;6079821;23;20037;-81
2024/03/22 06:29:35;;;;;;;9.55;4.68;;;;;;;;;;6078472;23;20003;-82
2024/03/22 06:32:11;;;;;;;8.85;4.25;;;;;;;;;;6079603;23;20010;-82
2024/03/22 06:35:05;;;;;;;13.43;4.47;;;;;;;;;;6081387;23;20007;-81
2024/03/22 06:37:42;;;;;;;14.60;4.90;;;;;;;;;;6080260;23;20015;-82
2024/03/22 06:40:10;;;;;;;13.55;4.72;;;;;;;;;;6097404;23;20033;-82
2024/03/22 06:42:36;;;;;;;11.52;4.85;;;;;;;;;;6080254;23;20006;-81
2024/03/22 06:45:13;;;;;;;13.23;5.15;;;;;;;;;;6081939;23;20021;-82
2024/03/22 06:48:14;;;;;;;11.60;4.30;;;;;;;;;;6110148;23;20026;-82
2024/03/22 06:50:42;;;;;;;12.65;5.47;;;;;;;;;;6035582;23;20014;-83
2024/03/22 06:53:33;;;;;;;13.95;5.38;;;;;;;;;;6036012;23;20018;-83
2024/03/22 06:56:00;;;;;;;12.48;4.97;;;;;;;;;;6104439;23;20030;-82
2024/03/22 06:58:52;;;;;;;11.85;5.60;;;;;;;;;;6056807;23;20014;-83
2024/03/22 07:01:21;;;;;;;16.70;6.50;;;;;;;;;;6079859;23;20014;-82
2024/03/22 07:03:52;;;;;;;;;;;;;;;;;;6055561;23;20018;-81
2024/03/22 07:06:26;;;;;;;14.07;5.82;;;;;;;;;;6080109;23;19909;-81
2024/03/22 07:08:53;;;;;;;11.77;5.38;;;;;;;;;;6079234;23;20544;-81
2024/03/22 07:11:23;;;;;;;19.77;6.07;;;;;;;;;;6054636;23;20097;-82
2024/03/22 07:13:49;;;;;;;12.18;5.85;;;;;;;;;;6033108;23;20014;-82
2024/03/22 07:16:15;;;;;;;13.38;6.55;;;;;;;;;;6080922;23;20010;-81
2024/03/22 07:18:43;;;;;;;15.00;6.13;;;;;;;;;;6081318;23;20010;-82
2024/03/22 07:21:09;;;;;;;14.18;6.03;;;;;;;;;;6079007;23;20340;-81
2024/03/22 07:23:35;;;;;;;20.40;6.30;;;;;;;;;;6057065;23;20070;-82
2024/03/22 07:26:12;;;;;;;13.25;6.38;;;;;;;;;;6082397;23;20028;-81
2024/03/22 07:28:39;;;;;;;15.60;6.32;;;;;;;;;;6080875;23;20038;-83
2024/03/22 07:31:07;;;;;;;14.85;6.10;;;;;;;;;;6082656;23;20002;-81
2024/03/22 07:33:53;;;;;;;17.02;6.43;;;;;;;;;;6087525;23;20109;-81
2024/03/22 07:36:22;;;;;;;17.15;6.72;;;;;;;;;;6060439;23;20074;-82
2024/03/22 07:39:00;;;;;;;;;;;;;;;;;;;;;
2024/03/22 07:41:44;;;;;;;;;;;;;;;;;;;;;
2024/03/22 07:44:34;;;;;;;16.33;7.07;;;;;;;;;;6103903;23;20061;-82
2024/03/22 07:47:44;;;;;;;13.75;6.35;;;;;;;;;;5994512;24;20035;-84
2024/03/22 07:50:18;;;;;;;13.13;7.32;;;;;;;;;;5898739;24;20553;-82
2024/03/22 07:52:54;;;;;;;14.07;6.80;;;;;;;;;;5965825;24;20016;-82
2024/03/22 07:55:25;;;;;;;15.80;6.47;;;;;;;;;;5965512;24;20004;-82
2024/03/22 07:58:04;;;;;;;19.63;6.63;;;;;;;;;;5969270;24;20023;-82
2024/03/22 08:00:43;;;;;;;18.13;6.93;;;;;;;;;;5945738;24;20016;-81
2024/03/22 08:03:14;;;;;;;15.20;7.18;;;;;;;;;;5941512;24;20008;-82
2024/03/22 08:06:05;;;;;;;15.20;6.90;;;;;;;;;;5964852;24;20392;-81
2024/03/22 08:09:02;;;;;;;17.13;6.63;;;;;;;;;;5969303;24;20023;-83
2024/03/22 08:11:51;;;;;;;16.20;6.55;;;;;;;;;;5963896;24;20016;-81
2024/03/22 08:14:55;;;;;;;14.05;5.93;;;;;;;;;;5987333;23;20008;-81
2024/03/22 08:17:53;;;;;;;20.08;7.28;;;;;;;;;;5964320;24;20012;-83
2024/03/22 08:20:34;;;;;;;15.10;5.93;;;;;;;;;;5922653;24;20019;-82
2024/03/22 08:23:03;;;;;;;19.30;6.85;;;;;;;;;;5987781;23;20077;-80
2024/03/22 08:25:30;;;;;;;19.92;7.95;;;;;;;;;;6070917;23;20006;-81
2024/03/22 08:27:59;;;;;;;14.48;7.50;;;;;;;;;;6010319;23;20014;-82
2024/03/22 08:30:36;;;;;;;14.77;6.65;;;;;;;;;;6032749;23;20011;-81
2024/03/22 08:33:13;;;;;;;13.85;7.40;;;;;;;;;;6035005;23;20010;-81
2024/03/22 08:35:53;;;;;;;19.70;7.63;;;;;;;;;;6039080;23;20019;-81
2024/03/22 08:38:53;;;;;;;15.10;7.22;;;;;;;;;;6064839;23;20010;-81
2024/03/22 08:41:32;;;;;;;16.08;7.88;;;;;;;;;;6084575;23;20018;-81
2024/03/22 08:43:57;;;;;;;17.73;8.05;;;;;;;;;;6034942;23;20065;-82
2024/03/22 08:46:26;;;;;;;15.55;7.85;;;;;;;;;;6038387;23;20014;-85
2024/03/22 08:48:54;;;;;;;16.17;7.80;;;;;;;;;;6038212;23;20014;-87
2024/03/22 08:51:20;;;;;;;19.63;8.20;;;;;;;;;;6060055;23;20003;-86
2024/03/22 08:53:46;;;;;;;20.48;8.68;;;;;;;;;;6034655;23;20006;-87
2024/03/22 08:56:12;;;;;;;16.73;8.45;;;;;;;;;;6034127;23;20046;-87
2024/03/22 08:58:38;;;;;;;19.40;9.02;;;;;;;;;;6033159;23;20010;-85
2024/03/22 09:01:04;;;;;;;19.23;9.48;;;;;;;;;;6031330;23;20014;-87
2024/03/22 09:03:30;;;;;;;22.55;10.00;;;;;;;;;;6029337;23;20010;-88
2024/03/22 09:05:56;;;;;;;26.15;9.90;;;;;;;;;;6053053;23;20518;-85
2024/03/22 09:08:22;;;;;;;19.90;9.85;;;;;;;;;;6054838;23;20045;-85
2024/03/22 09:10:48;;;;;;;25.48;10.25;;;;;;;;;;6053659;23;20085;-85
2024/03/22 09:13:13;;;;;;;19.83;9.57;;;;;;;;;;6051976;23;20021;-85
2024/03/22 09:15:39;;;;;;;24.00;9.88;;;;;;;;;;6076790;23;20026;-87
2024/03/22 09:18:05;;;;;;;21.60;10.40;;;;;;;;;;6077817;23;20014;-85
2024/03/22 09:20:30;;;;;;;19.98;10.25;;;;;;;;;;6064838;23;20014;-84
2024/03/22 09:22:57;;;;;;;23.08;10.77;;;;;;;;;;6094655;23;20010;-85
2024/03/22 09:25:24;;;;;;;20.73;9.55;;;;;;;;;;6081999;23;20006;-85
2024/03/22 09:27:50;;;;;;;20.30;10.00;;;;;;;;;;6104215;23;20003;-85
2024/03/22 09:30:16;;;;;;;22.17;10.25;;;;;;;;;;6080916;23;20013;-83
2024/03/22 09:32:42;;;;;;;21.20;9.18;;;;;;;;;;6057632;23;20117;-84
2024/03/22 09:35:08;;;;;;;24.10;10.23;;;;;;;;;;6082879;23;20018;-85
2024/03/22 09:37:34;;;;;;;18.15;9.18;;;;;;;;;;6078239;23;20016;-83
2024/03/22 09:40:07;;;;;;;22.90;10.68;;;;;;;;;;6080529;23;20434;-85
2024/03/22 09:42:46;;;;;;;22.13;8.82;;;;;;;;;;6061298;23;20648;-85
2024/03/22 09:45:12;;;;;;;17.67;8.57;;;;;;;;;;6082596;23;20424;-84
2024/03/22 09:47:44;;;;;;;18.85;8.95;;;;;;;;;;6103969;23;20046;-85
2024/03/22 09:50:22;;;;;;;16.05;8.15;;;;;;;;;;6082797;23;20061;-84
2024/03/22 09:56:52;;;;;;;20.58;8.35;;;;;;;;;;6026479;23;20073;-84
2024/03/22 09:59:23;;;;;;;27.42;8.93;;;;;;;;;;6058971;23;20089;-83
2024/03/22 10:01:55;;;;;;;15.57;8.00;;;;;;;;;;6104671;23;20073;-83
2024/03/22 10:04:31;;;;;;;14.27;7.15;;;;;;;;;;6037863;23;20344;-84
2024/03/22 10:07:03;;;;;;;17.30;7.78;;;;;;;;;;6034462;23;20014;-83
2024/03/22 10:09:42;;;;;;;14.85;7.65;;;;;;;;;;6061165;23;20017;-84
2024/03/22 10:12:22;;;;;;;12.45;6.78;;;;;;;;;;6039515;23;20015;-84
2024/03/22 10:14:59;;;;;;;21.55;7.53;;;;;;;;;;6091312;23;20010;-84
2024/03/22 10:17:45;;;;;;;16.60;7.03;;;;;;;;;;6089308;23;20006;-83
2024/03/22 10:20:17;;;;;;;15.30;6.72;;;;;;;;;;6044171;23;20003;-84
2024/03/22 10:23:19;;;;;;;15.73;6.75;;;;;;;;;;6044728;23;20381;-84
2024/03/22 10:25:46;;;;;;;15.60;7.00;;;;;;;;;;6114738;23;20006;-85
2024/03/22 10:28:21;;;;;;;13.85;6.53;;;;;;;;;;6044324;23;20007;-84
2024/03/22 10:30:53;;;;;;;13.85;6.88;;;;;;;;;;6061306;23;20006;-84
2024/03/22 10:33:23;;;;;;;13.25;6.38;;;;;;;;;;6061666;23;20058;-84
2024/03/22 10:35:54;;;;;;;15.57;6.57;;;;;;;;;;6092354;23;20038;-82
2024/03/22 10:38:34;;;;;;;16.23;7.30;;;;;;;;;;6062140;23;20345;-84
2024/03/22 10:41:03;;;;;;;15.93;7.67;;;;;;;;;;6111433;23;20033;-84
2024/03/22 10:43:32;;;;;;;21.80;7.20;;;;;;;;;;6086735;23;20026;-83
2024/03/22 10:46:06;;;;;;;19.30;6.85;;;;;;;;;;6111414;23;20022;-82
2024/03/22 10:49:04;;;;;;;14.65;6.72;;;;;;;;;;6067602;23;20086;-83
2024/03/22 10:51:31;;;;;;;15.00;6.28;;;;;;;;;;6109807;23;20026;-83
2024/03/22 10:54:13;;;;;;;17.25;6.53;;;;;;;;;;6092981;23;20004;-84
2024/03/22 10:56:59;;;;;;;16.52;7.75;;;;;;;;;;6116766;23;20006;-83
2024/03/22 10:59:35;;;;;;;12.73;6.35;;;;;;;;;;6069560;23;20100;-83
2024/03/22 11:02:07;;;;;;;17.42;7.00;;;;;;;;;;6117424;23;20014;-82
2024/03/22 11:05:08;;;;;;;;;;;;;;;;;;;;;
2024/03/22 11:08:10;;;;;;;;;;;;;;;;;;;;;
2024/03/22 11:11:11;;;;;;;;;;;;;;;;;;;;;
2024/03/22 11:13:46;;;;;;;13.43;6.20;;;;;;;;;;6141662;23;20057;-83
2024/03/22 11:16:25;;;;;;;15.77;7.20;;;;;;;;;;6093917;23;20531;-82
2024/03/22 11:18:52;;;;;;;14.38;6.65;;;;;;;;;;6093025;23;20015;-83
2024/03/22 11:21:33;;;;;;;13.00;6.68;;;;;;;;;;6115273;23;20097;-83
2024/03/22 11:24:24;;;;;;;14.57;6.90;;;;;;;;;;6095564;23;20038;-82
2024/03/22 11:26:52;;;;;;;16.27;6.80;;;;;;;;;;6065405;23;20014;-82
2024/03/22 11:29:18;;;;;;;;;;;;;;;;;;6090184;23;20038;-83
2024/03/22 11:31:51;;;;;;;14.40;7.05;;;;;;;;;;6064829;23;19905;-83
2024/03/22 11:34:44;;;;;;;18.15;7.15;;;;;;;;;;6095171;23;20022;-82
2024/03/22 11:37:14;;;;;;;20.50;7.65;;;;;;;;;;6087136;23;20015;-83
2024/03/22 11:39:43;;;;;;;16.95;8.15;;;;;;;;;;6086585;23;20026;-83
2024/03/22 11:42:11;;;;;;;;;;;;;;;;;;6087048;23;20014;-84
2024/03/22 11:44:42;;;;;;;12.90;6.88;;;;;;;;;;6136206;23;19912;-84
2024/03/22 11:47:13;;;;;;;15.45;8.48;;;;;;;;;;6086185;23;20014;-82
2024/03/22 11:49:56;;;;;;;;;;;;;;;;;;;;;
2024/03/22 11:52:32;;;;;;;15.85;8.35;;;;;;;;;;6117850;23;20041;-83
2024/03/22 11:55:01;;;;;;;14.38;8.23;;;;;;;;;;6114490;23;20010;-84
2024/03/22 11:57:28;;;;;;;18.67;9.82;;;;;;;;;;6116407;23;20372;-83
2024/03/22 12:00:04;;;;;;;18.83;8.77;;;;;;;;;;6091918;23;20014;-83
2024/03/22 12:02:41;;;;;;;19.27;9.73;;;;;;;;;;6092695;23;20014;-83
2024/03/22 12:05:11;;;;;;;15.70;8.32;;;;;;;;;;6090047;23;20081;-84
2024/03/22 12:07:40;;;;;;;16.85;9.18;;;;;;;;;;6094414;23;20073;-83
2024/03/22 12:13:04;;;;;;;18.17;9.40;;;;;;;;;;6113111;23;20006;-84
2024/03/22 12:15:38;;;;;;;17.42;9.38;;;;;;;;;;6090996;23;20040;-83
2024/03/22 12:18:10;;;;;;;18.02;10.27;;;;;;;;;;6118895;23;20010;-81
2024/03/22 12:20:36;;;;;;;21.08;9.80;;;;;;;;;;6070178;23;20017;-82
2024/03/22 12:23:13;;;;;;;20.10;10.07;;;;;;;;;;6094253;23;20207;-82
2024/03/22 12:25:42;;;;;;;18.67;9.90;;;;;;;;;;6069534;23;20010;-83
2024/03/22 12:28:43;;;;;;;17.92;9.65;;;;;;;;;;6095811;23;20018;-83
2024/03/22 12:31:26;;;;;;;18.50;10.00;;;;;;;;;;6096302;23;20010;-82
2024/03/22 12:34:08;;;;;;;22.88;10.80;;;;;;;;;;6095858;23;20001;-82
2024/03/22 12:36:42;;;;;;;18.35;10.05;;;;;;;;;;6122072;23;19994;-83
2024/03/22 12:39:13;;;;;;;21.45;10.10;;;;;;;;;;6096573;23;20116;-82
2024/03/22 12:41:43;;;;;;;17.08;9.15;;;;;;;;;;6100905;23;20025;-82
2024/03/22 12:44:32;;;;;;;21.55;10.77;;;;;;;;;;6129844;23;20014;-82
2024/03/22 12:47:22;;;;;;;19.55;9.80;;;;;;;;;;6102861;23;20018;-83
2024/03/22 12:49:52;;;;;;;20.38;10.38;;;;;;;;;;6095908;23;20037;-82
2024/03/22 12:52:21;;;;;;;21.25;11.98;;;;;;;;;;6098536;23;20010;-82
2024/03/22 12:54:51;;;;;;;20.63;10.60;;;;;;;;;;6096945;23;20020;-82
2024/03/22 12:57:17;;;;;;;20.63;10.95;;;;;;;;;;6097137;23;20017;-82
2024/03/22 12:59:53;;;;;;;21.55;10.65;;;;;;;;;;6149066;23;20002;-83
2024/03/22 13:02:23;;;;;;;23.65;11.85;;;;;;;;;;6099867;23;20006;-83
2024/03/22 13:04:56;;;;;;;23.17;11.93;;;;;;;;;;6051981;23;20018;-83
2024/03/22 13:07:22;;;;;;;26.55;11.70;;;;;;;;;;6097417;23;20009;-83
2024/03/22 13:09:48;;;;;;;23.35;12.10;;;;;;;;;;6071763;23;20085;-83
2024/03/22 13:12:15;;;;;;;23.90;12.60;;;;;;;;;;6119494;23;19998;-83
2024/03/22 13:14:40;;;;;;;22.88;10.82;;;;;;;;;;6097278;23;20114;-82
2024/03/22 13:17:13;;;;;;;25.13;12.13;;;;;;;;;;6093844;23;20077;-82
2024/03/22 13:20:10;;;;;;;21.30;12.02;;;;;;;;;;6100533;23;20021;-83
2024/03/22 13:23:35;;;;;;;25.92;11.60;;;;;;;;;;6111908;23;20013;-81
2024/03/22 13:27:03;;;;;;;;;;;;;;;;;;;;;
2024/03/22 13:30:37;;;;;;;25.70;10.25;;;;;;;;;;5993650;23;20011;-85
2024/03/22 13:37:12;;;;;;;19.98;10.07;;;;;;;;;;5916492;24;20017;-83
2024/03/22 13:44:44;;;;;;;17.65;8.70;;;;;;;;;;5844320;24;20018;-82
2024/03/22 13:48:04;;;;;;;18.40;8.77;;;;;;;;;;5834781;24;20049;-83
2024/03/22 13:51:56;;;;;;;17.23;9.30;;;;;;;;;;5933612;24;20471;-84
2024/03/22 13:55:32;;;;;;;;;;;;;;;;;;;;;
2024/03/22 13:58:32;;;;;;;;;;;;;;;;;;;;;
2024/03/22 14:01:13;;;;;;;18.52;9.82;;;;;;;;;;5894334;24;20017;-82
2024/03/22 14:03:41;;;;;;;19.13;9.85;;;;;;;;;;5849681;24;20014;-82
2024/03/22 14:06:17;;;;;;;20.13;10.40;;;;;;;;;;5895506;24;20017;-80
2024/03/22 14:09:33;;;;;;;22.98;11.38;;;;;;;;;;5909820;24;20044;-82
2024/03/22 14:19:43;;;;;;;25.70;11.13;;;;;;;;;;5928319;24;20095;-82
2024/03/22 14:22:22;;;;;;;17.40;9.77;;;;;;;;;;5980334;24;19992;-84
2024/03/22 14:25:02;;;;;;;19.88;10.52;;;;;;;;;;5985009;23;20072;-82
2024/03/22 14:27:54;;;;;;;16.92;10.13;;;;;;;;;;5930503;24;20017;-83
2024/03/22 14:34:44;;;;;;;22.00;10.50;;;;;;;;;;5966092;23;20016;-83
2024/03/22 14:37:13;;;;;;;18.77;9.30;;;;;;;;;;6101653;23;20021;-82
2024/03/22 14:40:14;;;;;;;14.70;9.10;;;;;;;;;;6127030;23;20069;-83
2024/03/22 14:43:25;;;;;;;17.70;9.80;;;;;;;;;;6111248;23;20280;-83
2024/03/22 14:50:13;;;;;;;20.88;10.73;;;;;;;;;;6034097;23;20076;-84
2024/03/22 14:53:33;;;;;;;17.13;9.52;;;;;;;;;;5955995;24;20176;-84
2024/03/22 14:56:14;;;;;;;21.40;10.25;;;;;;;;;;5955291;23;20016;-83
2024/03/22 15:02:32;;;;;;;17.98;9.38;;;;;;;;;;5954169;24;20012;-83
2024/03/22 15:05:05;;;;;;;18.55;10.00;;;;;;;;;;5953984;24;20020;-83
2024/03/22 15:16:13;;;;;;;19.15;9.52;;;;;;;;;;5918499;24;20086;-80
2024/03/22 15:18:43;;;;;;;16.92;9.20;;;;;;;;;;5917782;24;20088;-83
2024/03/22 15:21:14;;;;;;;18.73;9.77;;;;;;;;;;5910450;24;20070;-81
2024/03/22 15:23:40;;;;;;;19.85;10.60;;;;;;;;;;5894445;24;20082;-81
2024/03/22 15:26:16;;;;;;;18.77;9.63;;;;;;;;;;5899304;24;20017;-81
2024/03/22 15:29:20;;;;;;;20.02;9.88;;;;;;;;;;5928063;24;20009;-85
2024/03/22 15:32:28;;;;;;;;;;;;;;;;;;;;;
2024/03/22 15:35:14;;;;;;;16.05;9.20;;;;;;;;;;5925833;24;20344;-83
2024/03/22 15:37:45;;;;;;;19.52;9.88;;;;;;;;;;5903607;24;20008;-81
2024/03/22 15:40:14;;;;;;;21.50;10.27;;;;;;;;;;5949256;24;20094;-81
2024/03/22 15:42:41;;;;;;;25.13;9.45;;;;;;;;;;5947690;24;20017;-82
2024/03/22 15:45:27;;;;;;;17.27;9.63;;;;;;;;;;5924247;24;20057;-82
2024/03/22 15:47:53;;;;;;;18.77;10.07;;;;;;;;;;6010744;23;20015;-81
2024/03/22 15:50:23;;;;;;;15.80;9.82;;;;;;;;;;6076246;23;20026;-81
2024/03/22 15:52:53;;;;;;;16.23;9.13;;;;;;;;;;6101054;23;20102;-82
2024/03/22 15:58:15;;;;;;;17.77;9.00;;;;;;;;;;6104448;23;19994;-83
2024/03/22 16:00:51;;;;;;;19.17;8.75;;;;;;;;;;6153032;23;20006;-83
2024/03/22 16:03:25;;;;;;;18.67;9.27;;;;;;;;;;6104275;23;20017;-84
2024/03/22 16:06:02;;;;;;;15.75;8.57;;;;;;;;;;6151709;23;20060;-82
2024/03/22 16:08:34;;;;;;;18.30;8.68;;;;;;;;;;6102001;23;20002;-82
2024/03/22 16:11:03;;;;;;;21.42;9.20;;;;;;;;;;6099043;23;20010;-82
2024/03/22 16:13:29;;;;;;;17.10;9.32;;;;;;;;;;6097983;23;20010;-82
2024/03/22 16:15:56;;;;;;;18.70;9.35;;;;;;;;;;6098492;23;20057;-83
2024/03/22 16:18:22;;;;;;;16.45;8.90;;;;;;;;;;6075184;23;20017;-83
2024/03/22 16:20:48;;;;;;;15.82;8.25;;;;;;;;;;6097464;23;20020;-82